Time;durP1;ratioP1;P1;durP2;ratioP2;P2;SDS_P1;SDS_P2;PMS_P1;PMS_P2;Temp;Humidity;BMP_temperature;BMP_pressure;BME280_temperature;BME280_humidity;BME280_pressure;Samples;Min_cycle;Max_cycle;Signal;HPM_P1;HPM_P2
2021/11/05 00:04:23;;;;;;;6.57;5.00;;;7.50;89.60;;;;;;5087470;28;20062;-80
2021/11/05 00:06:49;;;;;;;6.63;5.20;;;7.50;89.60;;;;;;5117203;28;20044;-80
2021/11/05 00:09:15;;;;;;;6.63;5.07;;;7.50;89.50;;;;;;5119811;28;20029;-80
2021/11/05 00:11:40;;;;;;;5.93;4.70;;;7.50;89.50;;;;;;5086693;28;20194;-80
2021/11/05 00:14:06;;;;;;;6.05;4.50;;;7.50;89.50;;;;;;5100126;28;20029;-80
2021/11/05 00:16:31;;;;;;;5.68;4.45;;;7.50;89.60;;;;;;5116577;28;20119;-80
2021/11/05 00:18:57;;;;;;;8.93;4.65;;;7.50;89.60;;;;;;5097724;28;20031;-80
2021/11/05 00:21:23;;;;;;;5.28;4.45;;;7.50;89.50;;;;;;5117744;28;20107;-80
2021/11/05 00:23:48;;;;;;;7.25;5.03;;;7.50;89.60;;;;;;5118076;28;20101;-80
2021/11/05 00:26:14;;;;;;;6.43;4.75;;;7.50;89.60;;;;;;5100143;28;20074;-80
2021/11/05 00:28:40;;;;;;;5.40;4.00;;;7.50;89.60;;;;;;5117855;28;20067;-80
2021/11/05 00:31:05;;;;;;;6.05;4.50;;;7.50;89.70;;;;;;5081894;28;20032;-80
2021/11/05 00:33:31;;;;;;;4.95;4.00;;;7.50;89.60;;;;;;5114151;28;20056;-80
2021/11/05 00:35:57;;;;;;;4.97;3.60;;;7.50;89.60;;;;;;5122137;28;20043;-80
2021/11/05 00:38:22;;;;;;;7.47;4.57;;;7.50;89.70;;;;;;5119114;28;20484;-80
2021/11/05 00:40:48;;;;;;;6.47;4.07;;;7.50;89.70;;;;;;5102033;28;20082;-80
2021/11/05 00:43:14;;;;;;;6.18;3.85;;;7.50;89.80;;;;;;5119868;28;20063;-80
2021/11/05 00:45:39;;;;;;;7.35;4.07;;;7.50;89.70;;;;;;5118930;28;20041;-80
2021/11/05 00:48:05;;;;;;;5.55;3.95;;;7.50;89.80;;;;;;5116231;28;20054;-80
2021/11/05 00:50:31;;;;;;;7.50;4.07;;;7.50;89.80;;;;;;5118503;28;20445;-80
2021/11/05 00:52:57;;;;;;;7.18;4.22;;;7.50;89.80;;;;;;5100169;28;20066;-80
2021/11/05 00:55:24;;;;;;;6.88;4.03;;;7.50;89.80;;;;;;5117320;28;20032;-80
2021/11/05 00:57:50;;;;;;;5.40;3.63;;;7.50;89.90;;;;;;5103770;28;20055;-80
2021/11/05 01:00:16;;;;;;;4.72;3.47;;;7.60;90.00;;;;;;5102718;28;20127;-80
2021/11/05 01:02:43;;;;;;;6.32;3.78;;;7.60;90.00;;;;;;5083581;28;20066;-80
2021/11/05 01:05:11;;;;;;;4.10;3.20;;;7.60;90.00;;;;;;5114949;28;20159;-81
2021/11/05 01:07:37;;;;;;;5.00;3.40;;;7.60;90.00;;;;;;5101908;28;20029;-80
2021/11/05 01:10:04;;;;;;;6.65;3.17;;;7.60;90.20;;;;;;5102295;28;20522;-80
2021/11/05 01:12:30;;;;;;;5.38;2.90;;;7.60;90.00;;;;;;5104718;28;20021;-80
2021/11/05 01:14:56;;;;;;;4.78;3.00;;;7.60;90.00;;;;;;5121515;28;20070;-80
2021/11/05 01:17:22;;;;;;;4.43;3.03;;;7.60;90.00;;;;;;5102746;28;20032;-80
2021/11/05 01:19:49;;;;;;;3.90;3.00;;;7.60;90.00;;;;;;5115505;28;20031;-80
2021/11/05 01:22:14;;;;;;;5.80;3.10;;;7.60;90.00;;;;;;5118487;28;20036;-80
2021/11/05 01:24:41;;;;;;;3.85;2.90;;;7.60;90.00;;;;;;5117760;28;20024;-80
2021/11/05 01:27:07;;;;;;;4.43;3.03;;;7.60;90.00;;;;;;5114743;28;20043;-79
2021/11/05 01:29:32;;;;;;;4.28;2.90;;;7.60;90.00;;;;;;5114986;28;20027;-80
2021/11/05 01:31:58;;;;;;;4.40;2.92;;;7.60;90.00;;;;;;5114235;28;20054;-80
2021/11/05 01:34:24;;;;;;;5.85;3.42;;;7.60;90.00;;;;;;5112587;28;20035;-80
2021/11/05 01:36:51;;;;;;;3.72;2.90;;;7.60;90.00;;;;;;5098984;28;20048;-80
2021/11/05 01:39:16;;;;;;;4.30;2.78;;;7.60;90.00;;;;;;5118260;28;20033;-80
2021/11/05 01:41:44;;;;;;;3.50;3.10;;;7.50;90.00;;;;;;5116421;28;20032;-80
2021/11/05 01:44:09;;;;;;;4.70;3.10;;;7.60;90.00;;;;;;5116883;28;20032;-80
2021/11/05 01:46:42;;;;;;;4.63;3.03;;;7.50;90.00;;;;;;5113437;28;20056;-80
2021/11/05 01:49:10;;;;;;;6.18;2.97;;;7.50;90.00;;;;;;5080881;28;20040;-80
2021/11/05 01:51:38;;;;;;;4.20;2.80;;;7.50;90.00;;;;;;5113437;28;20024;-80
2021/11/05 01:54:06;;;;;;;4.07;2.90;;;7.50;90.00;;;;;;5111874;28;20032;-80
2021/11/05 01:56:32;;;;;;;3.15;2.72;;;7.50;90.00;;;;;;5113098;28;20056;-80
2021/11/05 01:58:58;;;;;;;3.40;3.08;;;7.40;90.10;;;;;;5116193;28;20373;-80
2021/11/05 02:01:24;;;;;;;4.53;3.00;;;7.40;90.10;;;;;;5116420;28;20059;-80
2021/11/05 02:03:50;;;;;;;5.45;2.92;;;7.40;90.10;;;;;;5111248;28;20047;-80
2021/11/05 02:06:20;;;;;;;3.10;2.65;;;7.40;90.10;;;;;;5094843;28;20107;-80
2021/11/05 02:08:47;;;;;;;5.20;2.92;;;7.40;90.10;;;;;;5117341;28;20028;-80
2021/11/05 02:11:13;;;;;;;3.28;2.58;;;7.40;90.10;;;;;;5099539;28;20021;-81
2021/11/05 02:13:41;;;;;;;3.78;2.75;;;7.40;90.10;;;;;;5116029;28;20127;-80
2021/11/05 02:16:09;;;;;;;5.07;2.83;;;7.40;90.10;;;;;;5113689;28;20036;-79
2021/11/05 02:18:35;;;;;;;3.65;2.47;;;7.40;90.20;;;;;;5097376;28;20132;-80
2021/11/05 02:21:02;;;;;;;4.57;2.58;;;7.40;90.20;;;;;;5114973;28;20064;-80
2021/11/05 02:23:28;;;;;;;2.95;2.65;;;7.40;90.20;;;;;;5096934;28;20032;-79
2021/11/05 02:25:54;;;;;;;3.75;2.30;;;7.40;90.20;;;;;;5079420;28;20024;-79
2021/11/05 02:28:20;;;;;;;4.75;2.58;;;7.40;90.20;;;;;;5077343;28;20420;-79
2021/11/05 02:30:47;;;;;;;3.97;2.33;;;7.40;90.20;;;;;;5094783;28;20028;-79
2021/11/05 02:33:13;;;;;;;3.05;2.03;;;7.40;90.20;;;;;;5078471;28;20032;-79
2021/11/05 02:35:38;;;;;;;6.30;2.20;;;7.50;90.30;;;;;;5112752;28;20123;-79
2021/11/05 02:38:04;;;;;;;2.70;2.22;;;7.50;90.30;;;;;;5110627;28;20029;-79
2021/11/05 02:40:30;;;;;;;4.13;2.22;;;7.50;90.30;;;;;;5109906;28;20033;-79
2021/11/05 02:42:56;;;;;;;4.68;2.50;;;7.40;90.20;;;;;;5110338;28;20032;-79
2021/11/05 02:45:22;;;;;;;3.83;2.65;;;7.40;90.20;;;;;;5110009;28;20039;-79
2021/11/05 02:47:48;;;;;;;2.97;2.20;;;7.40;90.50;;;;;;5092459;28;20024;-79
2021/11/05 02:50:16;;;;;;;3.42;2.17;;;7.40;90.30;;;;;;5109205;28;20025;-79
2021/11/05 02:52:42;;;;;;;3.60;2.20;;;7.40;90.30;;;;;;5109213;28;20500;-80
2021/11/05 02:55:11;;;;;;;2.63;2.25;;;7.40;90.30;;;;;;5109624;28;20124;-79
2021/11/05 02:57:36;;;;;;;2.05;1.80;;;7.40;90.30;;;;;;5092563;28;20025;-79
2021/11/05 03:00:05;;;;;;;3.30;2.05;;;7.50;90.30;;;;;;5109948;28;20093;-79
2021/11/05 03:02:31;;;;;;;3.35;1.98;;;7.40;90.30;;;;;;5109559;28;20036;-79
2021/11/05 03:04:57;;;;;;;4.70;2.17;;;7.40;90.30;;;;;;5109157;28;20028;-79
2021/11/05 03:07:22;;;;;;;3.20;2.42;;;7.40;90.30;;;;;;5109629;28;20021;-79
2021/11/05 03:09:48;;;;;;;4.05;1.95;;;7.40;90.60;;;;;;5109747;28;20016;-79
2021/11/05 03:12:14;;;;;;;2.88;1.88;;;7.40;90.30;;;;;;5109399;28;20027;-79
2021/11/05 03:14:40;;;;;;;2.67;1.90;;;7.40;90.30;;;;;;5110778;28;20020;-79
2021/11/05 03:17:31;;;;;;;1.95;1.60;;;7.40;90.30;;;;;;5110162;28;20545;-79
2021/11/05 03:19:59;;;;;;;1.80;1.38;;;7.50;90.40;;;;;;5109538;28;20115;-79
2021/11/05 03:22:25;;;;;;;2.65;1.50;;;7.40;90.30;;;;;;5109686;28;20067;-79
2021/11/05 03:24:51;;;;;;;3.70;1.48;;;7.40;90.30;;;;;;5109149;28;20068;-79
2021/11/05 03:27:17;;;;;;;2.38;1.38;;;7.40;90.30;;;;;;5109002;28;20481;-79
2021/11/05 03:29:43;;;;;;;5.10;1.67;;;7.40;90.30;;;;;;5108711;28;20075;-80
2021/11/05 03:32:09;;;;;;;2.88;1.33;;;7.40;90.40;;;;;;5108625;28;20427;-78
2021/11/05 03:34:35;;;;;;;2.50;1.52;;;7.50;90.40;;;;;;5092127;28;20036;-79
2021/11/05 03:37:01;;;;;;;4.60;1.60;;;7.40;90.40;;;;;;5076315;28;20134;-79
2021/11/05 03:39:27;;;;;;;3.92;1.70;;;7.50;90.40;;;;;;5076525;28;20059;-79
2021/11/05 03:41:53;;;;;;;3.67;1.30;;;7.50;90.40;;;;;;5111552;28;20027;-79
2021/11/05 03:44:19;;;;;;;3.55;1.20;;;7.50;90.40;;;;;;5079060;28;20032;-79
2021/11/05 03:46:44;;;;;;;1.27;1.02;;;7.50;90.40;;;;;;5110051;28;20021;-78
2021/11/05 03:49:10;;;;;;;3.40;1.40;;;7.50;90.40;;;;;;5109211;28;20017;-79
2021/11/05 03:51:36;;;;;;;2.88;1.17;;;7.50;90.40;;;;;;5108748;28;20055;-78
2021/11/05 03:57:52;;;;;;;2.88;1.10;;;7.50;90.40;;;;;;5076776;28;20357;-79
2021/11/05 04:00:18;;;;;;;1.35;1.10;;;7.50;90.40;;;;;;5085567;28;20072;-79
2021/11/05 04:02:44;;;;;;;1.35;1.00;;;7.50;90.30;;;;;;5071334;28;20082;-79
2021/11/05 04:05:10;;;;;;;1.70;1.10;;;7.50;90.40;;;;;;5071150;28;20481;-79
2021/11/05 04:07:36;;;;;;;2.25;1.20;;;7.60;90.40;;;;;;5071609;28;20025;-79
2021/11/05 04:10:02;;;;;;;2.35;0.98;;;7.60;90.40;;;;;;5072205;28;20025;-79
2021/11/05 04:12:28;;;;;;;3.28;1.27;;;7.60;90.40;;;;;;5055410;28;20028;-79
2021/11/05 04:14:54;;;;;;;4.65;1.30;;;7.70;90.40;;;;;;5073293;28;20481;-79
2021/11/05 04:17:19;;;;;;;2.95;1.10;;;7.70;90.30;;;;;;5072097;28;20025;-79
2021/11/05 04:19:45;;;;;;;4.03;1.00;;;7.70;90.30;;;;;;5054364;28;20021;-79
2021/11/05 04:22:11;;;;;;;1.90;0.90;;;7.70;90.30;;;;;;5054259;28;20198;-79
2021/11/05 04:24:37;;;;;;;3.47;1.15;;;7.70;90.30;;;;;;5053740;28;20496;-79
2021/11/05 04:27:03;;;;;;;2.20;1.00;;;7.70;90.30;;;;;;5070543;28;20075;-79
2021/11/05 04:29:31;;;;;;;3.72;1.10;;;7.70;90.30;;;;;;5053254;28;20051;-79
2021/11/05 04:31:57;;;;;;;2.05;1.10;;;7.70;90.30;;;;;;5052651;28;20021;-80
2021/11/05 04:34:23;;;;;;;2.35;1.13;;;7.70;90.30;;;;;;5053148;28;20024;-79
2021/11/05 04:36:48;;;;;;;2.63;1.00;;;7.70;90.30;;;;;;5053318;28;20033;-79
2021/11/05 04:39:17;;;;;;;3.78;1.00;;;7.70;90.30;;;;;;5054756;28;20100;-80
2021/11/05 04:41:43;;;;;;;4.55;1.90;;;7.70;90.30;;;;;;5053721;28;20017;-79
2021/11/05 04:44:09;;;;;;;3.05;1.30;;;7.70;90.30;;;;;;5054784;28;20066;-79
2021/11/05 04:46:34;;;;;;;2.05;1.20;;;7.70;90.40;;;;;;5033410;28;20423;-80
2021/11/05 04:49:00;;;;;;;7.07;1.50;;;7.70;90.30;;;;;;5028534;28;20407;-80
2021/11/05 04:51:26;;;;;;;3.42;1.20;;;7.70;90.40;;;;;;5035572;28;20018;-80
2021/11/05 04:53:52;;;;;;;1.73;1.20;;;7.70;90.30;;;;;;5053806;28;20032;-79
2021/11/05 04:56:17;;;;;;;2.53;1.33;;;7.70;90.30;;;;;;5036546;28;20044;-80
2021/11/05 04:58:43;;;;;;;2.35;1.40;;;7.70;90.30;;;;;;5053280;28;20469;-80
2021/11/05 05:01:09;;;;;;;2.85;1.45;;;7.70;90.30;;;;;;5064141;28;20132;-79
2021/11/05 05:03:35;;;;;;;2.22;1.67;;;7.60;90.20;;;;;;5070513;28;20048;-79
2021/11/05 05:09:23;;;;;;;2.72;1.65;;;7.50;90.30;;;;;;5057407;28;20128;-79
2021/11/05 05:11:49;;;;;;;3.83;2.08;;;7.40;90.30;;;;;;5072248;28;20037;-80
2021/11/05 05:14:15;;;;;;;2.40;1.80;;;7.40;90.30;;;;;;5073329;28;20028;-80
2021/11/05 05:16:41;;;;;;;2.53;2.10;;;7.30;90.30;;;;;;5058303;28;20043;-80
2021/11/05 05:19:07;;;;;;;3.10;2.28;;;7.30;90.30;;;;;;5071407;28;20029;-80
2021/11/05 05:21:33;;;;;;;3.67;2.10;;;7.30;90.30;;;;;;5071214;28;20027;-79
2021/11/05 05:23:58;;;;;;;2.95;2.13;;;7.20;90.30;;;;;;5071176;28;20025;-80
2021/11/05 05:26:25;;;;;;;4.05;2.10;;;7.20;90.30;;;;;;5070363;28;20021;-80
2021/11/05 05:28:50;;;;;;;3.88;2.38;;;7.20;90.30;;;;;;5071090;28;20066;-79
2021/11/05 05:31:16;;;;;;;3.05;2.55;;;7.10;90.30;;;;;;5069746;28;20111;-80
2021/11/05 05:33:42;;;;;;;3.22;2.50;;;7.10;90.30;;;;;;5069056;28;20040;-79
2021/11/05 05:36:09;;;;;;;7.30;2.53;;;7.10;90.30;;;;;;5069210;28;20017;-79
2021/11/05 05:38:36;;;;;;;8.02;2.90;;;7.10;90.30;;;;;;5068970;28;20033;-79
2021/11/05 05:41:02;;;;;;;6.28;2.55;;;7.10;90.30;;;;;;5068973;28;20087;-79
2021/11/05 05:43:28;;;;;;;4.95;2.72;;;7.00;90.30;;;;;;5067991;28;20020;-79
2021/11/05 05:45:54;;;;;;;5.82;3.03;;;7.00;90.30;;;;;;5068787;28;20025;-79
2021/11/05 05:48:21;;;;;;;6.32;3.10;;;7.00;90.20;;;;;;5068789;28;20507;-79
2021/11/05 05:50:47;;;;;;;17.02;3.13;;;6.90;90.20;;;;;;5068559;28;20426;-80
2021/11/05 05:53:12;;;;;;;14.18;3.03;;;6.90;90.30;;;;;;5068775;28;20048;-79
2021/11/05 05:55:39;;;;;;;7.03;3.00;;;6.90;90.20;;;;;;5068766;28;20115;-79
2021/11/05 05:58:06;;;;;;;10.98;2.88;;;6.90;90.30;;;;;;5068971;28;20029;-79
2021/11/05 06:00:32;;;;;;;6.78;2.70;;;6.80;90.20;;;;;;5068602;28;20132;-79
2021/11/05 06:02:58;;;;;;;25.13;2.90;;;6.80;90.20;;;;;;5068307;28;20040;-79
2021/11/05 06:05:24;;;;;;;18.17;2.90;;;6.80;90.20;;;;;;5068292;28;20468;-79
2021/11/05 06:07:50;;;;;;;10.95;2.88;;;6.80;90.20;;;;;;5068423;28;20020;-79
2021/11/05 06:10:16;;;;;;;19.08;2.65;;;6.80;90.20;;;;;;5068520;28;20025;-79
2021/11/05 06:12:42;;;;;;;16.05;2.88;;;6.80;90.10;;;;;;5068346;28;20033;-79
2021/11/05 06:15:08;;;;;;;9.95;2.67;;;6.70;90.10;;;;;;5068515;28;20113;-79
2021/11/05 06:17:34;;;;;;;18.73;2.83;;;6.70;90.10;;;;;;5068674;28;20025;-79
2021/11/05 06:20:00;;;;;;;18.60;3.10;;;6.70;90.10;;;;;;5069103;28;20071;-80
2021/11/05 06:22:26;;;;;;;24.88;3.20;;;6.70;90.10;;;;;;5068690;28;20025;-80
2021/11/05 06:24:51;;;;;;;13.65;3.25;;;6.70;90.10;;;;;;5068808;28;20048;-79
2021/11/05 06:27:17;;;;;;;27.02;3.47;;;6.70;90.10;;;;;;5075543;28;20017;-79
2021/11/05 06:29:43;;;;;;;18.77;3.22;;;6.70;90.10;;;;;;5068657;28;20473;-79
2021/11/05 06:32:11;;;;;;;13.18;3.55;;;6.70;90.10;;;;;;5068994;28;20013;-79
2021/11/05 06:34:37;;;;;;;29.02;3.55;;;6.60;90.00;;;;;;5052463;28;20032;-79
2021/11/05 06:37:03;;;;;;;24.00;3.33;;;6.60;90.00;;;;;;5070175;28;20052;-80
2021/11/05 06:39:29;;;;;;;14.75;3.42;;;6.60;90.00;;;;;;5070844;28;20025;-79
2021/11/05 06:41:55;;;;;;;9.38;3.20;;;6.60;90.00;;;;;;5073682;28;20033;-80
2021/11/05 06:44:21;;;;;;;19.27;3.22;;;6.60;90.00;;;;;;5073153;28;20450;-80
2021/11/05 06:46:47;;;;;;;7.07;3.00;;;6.60;90.00;;;;;;5070413;28;20163;-80
2021/11/05 06:49:12;;;;;;;7.47;2.83;;;6.60;90.00;;;;;;5069411;28;20056;-79
2021/11/05 06:51:38;;;;;;;11.32;3.08;;;6.60;90.00;;;;;;5068559;28;20491;-81
2021/11/05 06:54:04;;;;;;;17.77;2.97;;;6.60;90.00;;;;;;5055584;28;20072;-79
2021/11/05 06:56:30;;;;;;;16.60;3.40;;;6.60;89.90;;;;;;5058503;28;20025;-79
2021/11/05 06:58:56;;;;;;;19.63;3.47;;;6.70;89.90;;;;;;5075318;28;20457;-80
2021/11/05 07:01:23;;;;;;;41.67;3.72;;;6.70;89.80;;;;;;5074016;28;20131;-79
2021/11/05 07:03:49;;;;;;;17.85;3.35;;;6.70;89.80;;;;;;5072541;28;20591;-79
2021/11/05 07:06:15;;;;;;;18.67;3.47;;;6.60;89.70;;;;;;5073836;28;20069;-79
2021/11/05 07:08:40;;;;;;;10.68;3.35;;;6.70;89.80;;;;;;5074642;28;20025;-80
2021/11/05 07:11:06;;;;;;;18.83;3.80;;;6.70;89.80;;;;;;5073518;28;20017;-79
2021/11/05 07:13:32;;;;;;;7.85;3.47;;;6.70;89.80;;;;;;5074188;28;20047;-80
2021/11/05 07:15:58;;;;;;;30.13;4.30;;;6.70;89.70;;;;;;5071680;28;20108;-81
2021/11/05 07:18:24;;;;;;;31.08;3.80;;;6.70;89.60;;;;;;5071331;28;20075;-80
2021/11/05 07:20:50;;;;;;;35.35;4.00;;;6.70;89.60;;;;;;5073377;28;20028;-80
2021/11/05 07:23:16;;;;;;;26.67;3.80;;;6.70;89.60;;;;;;5073905;28;20048;-80
2021/11/05 07:25:42;;;;;;;30.23;3.80;;;6.70;89.60;;;;;;5074039;28;20036;-79
2021/11/05 07:28:08;;;;;;;32.58;3.92;;;6.70;89.60;;;;;;5073186;28;20021;-80
2021/11/05 07:30:34;;;;;;;46.65;4.43;;;6.80;89.60;;;;;;5073736;28;20017;-80
2021/11/05 07:33:00;;;;;;;23.77;4.07;;;6.80;89.60;;;;;;5072230;28;20021;-79
2021/11/05 07:35:25;;;;;;;69.15;4.68;;;6.80;89.60;;;;;;5058895;28;20473;-80
2021/11/05 07:37:52;;;;;;;65.03;4.68;;;6.80;89.60;;;;;;5076141;28;20399;-78
2021/11/05 07:40:19;;;;;;;37.95;3.97;;;6.80;89.50;;;;;;5074127;28;20025;-79
2021/11/05 07:42:46;;;;;;;80.13;4.80;;;6.80;89.50;;;;;;5072501;28;20052;-79
2021/11/05 07:45:14;;;;;;;42.67;4.35;;;6.80;89.60;;;;;;5072227;28;20064;-78
2021/11/05 07:47:40;;;;;;;56.47;4.20;;;6.90;89.60;;;;;;5070839;28;20052;-79
2021/11/05 07:50:08;;;;;;;51.13;4.60;;;6.90;89.60;;;;;;5070694;28;20021;-78
2021/11/05 07:52:34;;;;;;;35.90;4.20;;;6.90;89.60;;;;;;5072477;28;20074;-78
2021/11/05 07:55:01;;;;;;;56.83;4.50;;;6.90;89.70;;;;;;5072552;28;20540;-78
2021/11/05 07:57:27;;;;;;;35.10;4.32;;;6.90;89.80;;;;;;5071760;28;20477;-78
2021/11/05 07:59:54;;;;;;;40.83;4.22;;;7.00;89.70;;;;;;5071179;28;20052;-79
2021/11/05 08:02:20;;;;;;;50.50;5.00;;;7.00;89.60;;;;;;5053833;28;20025;-79
2021/11/05 08:04:45;;;;;;;26.90;4.18;;;7.10;89.70;;;;;;5053035;28;20583;-79
2021/11/05 08:10:33;;;;;;;18.52;4.00;;;7.20;89.70;;;;;;5058515;28;20078;-79
2021/11/05 08:12:59;;;;;;;27.55;4.28;;;7.30;89.70;;;;;;5054869;28;20028;-79
2021/11/05 08:15:24;;;;;;;28.17;4.75;;;7.30;89.60;;;;;;5056117;28;20215;-76
2021/11/05 08:17:50;;;;;;;12.18;4.70;;;7.30;89.60;;;;;;5053933;28;20028;-78
2021/11/05 08:23:38;;;;;;;10.60;4.63;;;7.40;89.70;;;;;;5054759;28;20039;-79
2021/11/05 08:26:05;;;;;;;11.73;5.90;;;7.50;89.60;;;;;;5053231;28;20021;-81
2021/11/05 08:28:32;;;;;;;12.75;5.20;;;7.50;89.60;;;;;;5053185;28;20025;-77
2021/11/05 08:30:58;;;;;;;11.55;5.25;;;7.60;89.60;;;;;;5056569;28;20021;-83
2021/11/05 08:33:24;;;;;;;9.45;5.10;;;7.60;89.60;;;;;;5059433;28;20079;-83
2021/11/05 08:35:51;;;;;;;13.02;5.47;;;7.70;90.10;;;;;;5055758;28;20025;-83
2021/11/05 08:38:19;;;;;;;8.48;5.30;;;7.70;89.50;;;;;;5058398;28;20033;-81
2021/11/05 08:40:48;;;;;;;10.10;5.15;;;7.70;89.40;;;;;;5063768;28;20549;-80
2021/11/05 08:43:16;;;;;;;10.25;5.10;;;7.70;89.50;;;;;;5059924;28;20017;-81
2021/11/05 08:45:42;;;;;;;16.02;5.43;;;7.80;89.60;;;;;;5063757;28;20120;-82
2021/11/05 08:48:09;;;;;;;8.00;4.68;;;7.90;89.60;;;;;;5064457;28;20025;-80
2021/11/05 08:50:35;;;;;;;9.23;5.00;;;7.90;89.50;;;;;;5062856;28;20013;-81
2021/11/05 08:53:02;;;;;;;8.52;5.75;;;8.00;89.50;;;;;;5060561;28;20020;-81
2021/11/05 08:55:28;;;;;;;10.20;5.72;;;8.20;89.50;;;;;;5060905;28;20025;-82
2021/11/05 09:01:16;;;;;;;7.65;5.88;;;8.50;89.00;;;;;;5071527;28;20046;-80
2021/11/05 09:03:42;;;;;;;9.77;6.63;;;8.50;88.90;;;;;;5102812;28;20041;-81
2021/11/05 09:06:09;;;;;;;9.23;6.95;;;8.40;88.80;;;;;;5100221;28;20088;-80
2021/11/05 09:08:39;;;;;;;7.72;6.70;;;8.40;88.90;;;;;;5103282;28;20016;-81
2021/11/05 09:11:06;;;;;;;10.32;6.30;;;8.30;89.10;;;;;;5106129;28;20063;-80
2021/11/05 09:13:33;;;;;;;9.05;6.40;;;8.40;89.30;;;;;;5084400;28;20033;-80
2021/11/05 09:15:59;;;;;;;8.30;5.60;;;8.40;89.40;;;;;;5072630;28;20090;-79
2021/11/05 09:21:47;;;;;;;6.10;5.05;;;8.50;89.40;;;;;;5073704;28;20027;-78
2021/11/05 09:24:13;;;;;;;9.82;6.07;;;8.50;89.30;;;;;;5088841;28;20032;-78
2021/11/05 09:26:38;;;;;;;11.10;5.55;;;8.60;89.40;;;;;;5073324;28;20039;-78
2021/11/05 09:29:04;;;;;;;7.47;4.97;;;8.60;89.50;;;;;;5089742;28;20024;-79
2021/11/05 09:32:13;;;;;;;6.75;4.25;;;8.70;89.50;;;;;;5091695;28;20017;-78
2021/11/05 09:34:39;;;;;;;5.22;4.07;;;8.70;89.40;;;;;;5093870;28;20028;-78
2021/11/05 09:37:06;;;;;;;5.72;4.05;;;8.90;89.50;;;;;;5091199;28;20016;-78
2021/11/05 09:39:32;;;;;;;6.63;3.42;;;8.90;89.40;;;;;;5091094;28;20028;-77
2021/11/05 09:41:59;;;;;;;7.40;3.78;;;9.00;89.40;;;;;;5093955;28;20384;-79
2021/11/05 09:44:25;;;;;;;5.57;3.28;;;9.10;90.00;;;;;;5096094;28;20024;-78
2021/11/05 09:46:52;;;;;;;6.00;3.75;;;9.20;89.40;;;;;;5089880;28;20050;-79
2021/11/05 09:49:19;;;;;;;6.15;3.38;;;9.40;89.40;;;;;;5094986;28;20024;-78
2021/11/05 09:51:45;;;;;;;4.03;3.30;;;9.50;89.90;;;;;;5092187;28;20024;-86
2021/11/05 09:54:12;;;;;;;4.78;3.55;;;9.70;89.10;;;;;;5093130;28;20028;-78
2021/11/05 09:56:38;;;;;;;5.93;3.60;;;9.80;89.00;;;;;;5076202;28;20070;-80
2021/11/05 09:59:11;;;;;;;5.78;3.80;;;9.90;88.90;;;;;;5091959;28;20024;-80
2021/11/05 10:01:41;;;;;;;6.07;3.63;;;10.00;88.80;;;;;;5093099;28;20036;-82
2021/11/05 10:04:10;;;;;;;4.40;3.55;;;10.20;88.70;;;;;;5096671;28;20029;-82
2021/11/05 10:06:39;;;;;;;5.35;3.50;;;10.30;88.50;;;;;;5099136;28;20025;-84
2021/11/05 10:09:17;;;;;;;6.15;3.10;;;10.40;88.50;;;;;;5095267;28;20475;-83
2021/11/05 10:11:42;;;;;;;4.97;2.90;;;10.40;88.40;;;;;;5096438;28;20058;-83
2021/11/05 10:14:18;;;;;;;4.88;3.20;;;10.50;88.40;;;;;;5095400;28;20108;-84
2021/11/05 10:16:59;;;;;;;6.32;3.30;;;10.60;88.40;;;;;;5093230;28;20025;-80
2021/11/05 10:19:44;;;;;;;5.00;3.50;;;10.60;88.30;;;;;;5090055;28;20106;-79
2021/11/05 10:22:29;;;;;;;5.97;2.90;;;10.70;88.20;;;;;;5090152;28;20041;-80
2021/11/05 10:28:28;;;;;;;4.75;2.92;;;10.90;88.10;;;;;;5073282;28;20032;-80
2021/11/05 10:31:03;;;;;;;5.75;2.80;;;10.90;87.90;;;;;;5078822;28;20021;-79
2021/11/05 10:33:37;;;;;;;4.50;2.70;;;11.00;87.90;;;;;;5099586;28;20467;-79
2021/11/05 10:36:05;;;;;;;5.80;2.90;;;11.00;87.90;;;;;;5094253;28;20020;-81
2021/11/05 10:38:35;;;;;;;4.43;2.50;;;11.10;87.90;;;;;;5077175;28;20039;-81
2021/11/05 10:41:04;;;;;;;3.97;2.30;;;11.10;87.90;;;;;;5092216;28;20017;-80
2021/11/05 10:43:41;;;;;;;5.80;2.40;;;11.10;88.40;;;;;;5080033;28;20033;-82
2021/11/05 10:46:21;;;;;;;5.05;2.50;;;11.10;87.90;;;;;;5111555;28;20492;-82
2021/11/05 10:52:18;;;;;;;3.92;2.20;;;11.10;87.90;;;;;;5084359;28;20040;-81
2021/11/05 10:54:58;;;;;;;3.00;2.05;;;11.20;87.70;;;;;;5099766;28;20108;-82
2021/11/05 10:57:41;;;;;;;5.88;2.40;;;11.30;87.70;;;;;;5099304;28;20051;-82
2021/11/05 11:00:23;;;;;;;7.00;2.40;;;11.40;87.70;;;;;;5102872;28;20039;-82
2021/11/05 11:02:49;;;;;;;5.20;1.92;;;11.50;87.70;;;;;;5118365;28;20059;-81
2021/11/05 11:05:33;;;;;;;4.30;1.90;;;11.60;87.40;;;;;;5100887;28;20025;-80
2021/11/05 11:07:59;;;;;;;;;;;11.80;87.30;;;;;;5105920;28;20050;-81
2021/11/05 11:10:33;;;;;;;4.00;1.75;;;11.90;87.10;;;;;;5104373;28;19947;-81
2021/11/05 11:12:59;;;;;;;4.70;1.77;;;12.00;86.80;;;;;;5101993;28;20033;-81
2021/11/05 11:15:36;;;;;;;4.75;1.95;;;12.20;86.70;;;;;;5099529;28;20510;-82
2021/11/05 11:18:03;;;;;;;4.40;1.70;;;12.30;86.40;;;;;;5096143;28;20035;-82
2021/11/05 11:20:31;;;;;;;5.35;2.13;;;12.40;86.20;;;;;;5098018;28;20020;-81
2021/11/05 11:22:57;;;;;;;6.10;1.95;;;12.50;86.10;;;;;;5097582;28;20029;-81
2021/11/05 11:25:23;;;;;;;5.47;1.95;;;12.50;86.00;;;;;;5094601;28;20035;-85
2021/11/05 11:27:49;;;;;;;2.65;1.27;;;12.50;85.80;;;;;;5091451;28;20419;-81
2021/11/05 11:30:15;;;;;;;2.33;1.20;;;12.60;85.70;;;;;;5091192;28;20024;-82
2021/11/05 11:32:42;;;;;;;3.00;1.10;;;12.60;86.20;;;;;;5075455;28;20025;-82
2021/11/05 11:35:07;;;;;;;2.33;0.95;;;12.60;85.40;;;;;;5091193;28;20017;-82
2021/11/05 11:37:37;;;;;;;4.63;1.10;;;12.60;85.20;;;;;;5091040;28;20161;-81
2021/11/05 11:40:03;;;;;;;2.33;1.00;;;12.70;84.70;;;;;;5091183;28;20563;-82
2021/11/05 11:42:29;;;;;;;1.45;0.88;;;12.70;84.50;;;;;;5091090;28;20016;-81
2021/11/05 11:44:55;;;;;;;3.45;0.80;;;12.80;84.10;;;;;;5075378;28;20104;-82
2021/11/05 11:47:22;;;;;;;2.13;0.80;;;12.80;83.90;;;;;;5091228;28;20012;-78
2021/11/05 11:49:49;;;;;;;2.38;0.90;;;12.80;83.70;;;;;;5093648;28;20036;-81
2021/11/05 11:52:15;;;;;;;5.40;1.10;;;12.80;83.70;;;;;;5093763;28;20125;-81
2021/11/05 11:54:43;;;;;;;3.17;0.90;;;12.70;83.40;;;;;;5111594;28;20115;-86
2021/11/05 11:57:33;;;;;;;3.85;0.82;;;12.60;83.30;;;;;;5093604;28;20078;-85
2021/11/05 12:00:20;;;;;;;2.22;0.82;;;12.60;83.40;;;;;;5091521;28;20048;-82
2021/11/05 12:03:08;;;;;;;3.35;0.98;;;12.50;83.40;;;;;;5094617;28;20029;-83
2021/11/05 12:05:42;;;;;;;3.90;1.15;;;12.40;83.40;;;;;;5096107;28;20097;-83
2021/11/05 12:08:21;;;;;;;5.00;1.00;;;12.40;83.40;;;;;;5093952;28;20025;-83
2021/11/05 12:10:59;;;;;;;6.45;1.10;;;12.40;83.40;;;;;;5093896;28;20016;-82
2021/11/05 12:13:34;;;;;;;3.40;0.70;;;12.40;83.30;;;;;;5118682;28;20025;-80
2021/11/05 12:16:18;;;;;;;4.07;0.95;;;12.40;83.30;;;;;;5119258;28;20033;-82
2021/11/05 12:19:14;;;;;;;4.80;1.02;;;12.50;83.20;;;;;;5103215;28;20028;-82
2021/11/05 12:21:46;;;;;;;2.40;0.80;;;12.50;83.10;;;;;;5081727;28;20035;-82
2021/11/05 12:24:20;;;;;;;4.25;1.00;;;12.60;83.10;;;;;;5095067;28;20088;-81
2021/11/05 12:26:47;;;;;;;;;;;12.60;83.10;;;;;;5118977;28;20021;-82
2021/11/05 12:29:31;;;;;;;4.43;1.15;;;12.60;83.10;;;;;;5099557;28;19991;-81
2021/11/05 12:31:58;;;;;;;4.13;1.30;;;12.60;82.90;;;;;;5110760;28;20491;-81
2021/11/05 12:34:40;;;;;;;8.15;1.30;;;12.60;82.80;;;;;;5097392;28;20473;-84
2021/11/05 12:37:06;;;;;;;5.28;0.93;;;12.60;82.70;;;;;;5074833;28;20032;-85
2021/11/05 12:39:38;;;;;;;3.45;0.90;;;12.60;82.80;;;;;;5091462;28;20032;-84
2021/11/05 12:42:08;;;;;;;4.40;1.05;;;12.60;82.90;;;;;;5095000;28;20024;-85
2021/11/05 12:44:55;;;;;;;3.63;1.55;;;12.60;82.80;;;;;;5092652;28;20035;-83
2021/11/05 12:47:50;;;;;;;4.07;1.08;;;12.60;82.60;;;;;;5092898;28;20454;-79
2021/11/05 12:50:28;;;;;;;4.15;0.80;;;12.60;82.70;;;;;;5074964;28;20073;-82
2021/11/05 12:53:01;;;;;;;2.00;0.50;;;12.50;82.70;;;;;;5090302;28;20480;-80
2021/11/05 12:55:32;;;;;;;2.20;0.60;;;12.50;82.30;;;;;;5089585;28;20370;-79
2021/11/05 12:58:00;;;;;;;1.90;0.57;;;12.30;82.60;;;;;;5089904;28;20020;-79
2021/11/05 13:00:38;;;;;;;3.83;0.60;;;12.10;83.00;;;;;;5089959;28;20048;-77
2021/11/05 13:03:06;;;;;;;1.48;1.05;;;12.00;83.50;;;;;;5089307;28;20380;-78
2021/11/05 13:05:32;;;;;;;2.50;0.77;;;11.90;84.50;;;;;;5075000;28;20400;-77
2021/11/05 13:08:06;;;;;;;3.08;0.80;;;11.90;84.20;;;;;;5089231;28;20016;-77
2021/11/05 13:10:39;;;;;;;4.00;1.10;;;11.90;84.40;;;;;;5073706;28;20025;-77
2021/11/05 13:13:06;;;;;;;1.58;0.85;;;11.90;84.50;;;;;;5089342;28;20109;-79
2021/11/05 13:15:34;;;;;;;1.33;0.60;;;11.90;84.60;;;;;;5089776;28;20384;-81
2021/11/05 13:18:01;;;;;;;2.65;0.80;;;11.90;84.60;;;;;;5089278;28;20024;-81
2021/11/05 13:20:38;;;;;;;3.00;0.40;;;12.00;84.60;;;;;;5089278;28;20024;-81
2021/11/05 13:23:03;;;;;;;1.20;0.40;;;12.00;84.60;;;;;;5089023;28;20024;-81
2021/11/05 13:25:37;;;;;;;2.40;0.77;;;12.00;84.50;;;;;;5089135;28;20070;-80
2021/11/05 13:28:16;;;;;;;0.90;0.32;;;12.00;84.50;;;;;;5106409;28;20081;-80